Time;durP1;ratioP1;P1;durP2;ratioP2;P2;SDS_P1;SDS_P2;PMS_P1;PMS_P2;Temp;Humidity;BMP_temperature;BMP_pressure;BME280_temperature;BME280_humidity;BME280_pressure;Samples;Min_cycle;Max_cycle;Signal;HPM_P1;HPM_P2
2023/10/01 00:01:03;;;;;;;4.57;3.70;;;14.80;99.90;;;;;;5093457;28;20434;-61
2023/10/01 00:03:29;;;;;;;6.43;4.80;;;14.80;99.90;;;;;;5093282;28;20793;-60
2023/10/01 00:05:56;;;;;;;4.90;4.10;;;14.80;99.90;;;;;;5093257;28;20430;-62
2023/10/01 00:08:23;;;;;;;5.80;4.60;;;14.80;99.90;;;;;;5093486;28;20754;-60
2023/10/01 00:10:50;;;;;;;6.57;4.50;;;14.80;99.90;;;;;;5093055;28;20897;-61
2023/10/01 00:13:17;;;;;;;9.13;4.43;;;14.80;99.90;;;;;;5093380;28;20438;-60
2023/10/01 00:15:44;;;;;;;5.00;3.77;;;14.80;99.90;;;;;;5093427;28;20438;-61
2023/10/01 00:18:14;;;;;;;5.20;3.83;;;14.80;99.90;;;;;;5093037;28;20482;-60
2023/10/01 00:20:41;;;;;;;5.03;3.53;;;14.80;99.90;;;;;;5092796;28;20490;-60
2023/10/01 00:23:08;;;;;;;4.93;4.33;;;14.80;99.90;;;;;;5093373;28;20443;-60
2023/10/01 00:25:36;;;;;;;7.30;4.20;;;14.80;99.90;;;;;;5093197;28;20529;-62
2023/10/01 00:28:04;;;;;;;5.53;3.83;;;14.70;99.90;;;;;;5095408;28;20438;-61
2023/10/01 00:30:32;;;;;;;8.20;5.20;;;14.70;99.90;;;;;;5097290;28;20511;-60
2023/10/01 00:32:59;;;;;;;12.30;4.50;;;14.70;99.90;;;;;;5097343;28;20899;-62
2023/10/01 00:35:27;;;;;;;5.17;4.00;;;14.70;99.90;;;;;;5097201;28;20434;-61
2023/10/01 00:37:54;;;;;;;6.23;4.10;;;14.70;99.90;;;;;;5096960;28;20820;-61
2023/10/01 00:40:22;;;;;;;6.17;4.10;;;14.70;99.90;;;;;;5096605;28;20454;-61
2023/10/01 00:42:48;;;;;;;4.97;4.10;;;14.60;99.90;;;;;;5097079;28;20700;-62
2023/10/01 00:45:15;;;;;;;6.57;5.37;;;14.70;99.90;;;;;;5096786;28;20437;-61
2023/10/01 00:47:44;;;;;;;8.20;4.70;;;14.60;99.90;;;;;;5097164;28;20453;-61
2023/10/01 00:50:12;;;;;;;4.97;3.70;;;14.70;99.90;;;;;;5097164;28;20528;-61
2023/10/01 00:52:41;;;;;;;5.57;3.80;;;14.70;99.90;;;;;;5097072;28;20438;-61
2023/10/01 00:55:13;;;;;;;7.03;4.27;;;14.60;99.90;;;;;;5097069;28;20537;-61
2023/10/01 00:57:41;;;;;;;6.37;4.67;;;14.60;99.90;;;;;;5096515;28;20463;-60
2023/10/01 01:00:15;;;;;;;5.00;3.87;;;14.70;99.90;;;;;;5096483;28;20552;-60
2023/10/01 01:02:56;;;;;;;4.93;4.00;;;14.70;99.90;;;;;;5096422;28;20462;-62
2023/10/01 01:05:23;;;;;;;5.60;3.90;;;14.60;99.90;;;;;;5096742;28;20429;-60
2023/10/01 01:07:51;;;;;;;5.43;3.73;;;14.70;99.90;;;;;;5096854;28;20441;-60
2023/10/01 01:10:20;;;;;;;5.37;3.97;;;14.60;99.90;;;;;;5096664;28;20472;-60
2023/10/01 01:12:47;;;;;;;5.03;4.00;;;14.70;99.90;;;;;;5096670;28;20438;-60
2023/10/01 01:15:14;;;;;;;8.97;4.60;;;14.70;99.90;;;;;;5096461;28;20438;-60
2023/10/01 01:17:41;;;;;;;4.83;3.67;;;14.70;99.90;;;;;;5096041;28;20990;-60
2023/10/01 01:20:13;;;;;;;8.23;4.83;;;14.70;99.90;;;;;;5096061;28;20878;-60
2023/10/01 01:22:42;;;;;;;5.10;4.57;;;14.70;99.90;;;;;;5096169;28;20887;-62
2023/10/01 01:25:20;;;;;;;7.93;4.20;;;14.70;99.90;;;;;;5095746;28;21023;-60
2023/10/01 01:27:47;;;;;;;4.77;3.63;;;14.70;99.90;;;;;;5096159;28;20419;-60
2023/10/01 01:30:18;;;;;;;6.10;3.93;;;14.70;99.90;;;;;;5095907;28;20599;-60
2023/10/01 01:32:45;;;;;;;8.10;3.93;;;14.70;99.90;;;;;;5096236;28;20454;-59
2023/10/01 01:35:12;;;;;;;5.50;4.67;;;14.70;99.90;;;;;;5095852;28;20438;-60
2023/10/01 01:37:47;;;;;;;4.20;3.77;;;14.60;99.90;;;;;;5095789;28;20923;-61
2023/10/01 01:40:24;;;;;;;8.80;4.33;;;14.60;99.90;;;;;;5094974;28;20457;-59
2023/10/01 01:42:51;;;;;;;7.27;4.07;;;14.60;99.90;;;;;;5095648;28;20427;-59
2023/10/01 01:45:19;;;;;;;7.13;4.20;;;14.60;99.90;;;;;;5095665;28;20441;-59
2023/10/01 01:47:46;;;;;;;6.23;3.80;;;14.60;99.90;;;;;;5095567;28;20438;-60
2023/10/01 01:50:19;;;;;;;4.73;3.87;;;14.60;99.90;;;;;;5095750;28;20458;-60
2023/10/01 01:52:49;;;;;;;5.63;3.97;;;14.60;99.90;;;;;;5095313;28;20430;-60
2023/10/01 01:55:26;;;;;;;5.40;3.93;;;14.60;99.90;;;;;;5095927;28;20513;-60
2023/10/01 01:58:04;;;;;;;6.30;4.03;;;14.70;99.90;;;;;;5095285;28;20468;-61
2023/10/01 02:00:34;;;;;;;7.13;4.27;;;14.70;99.90;;;;;;5094925;28;20461;-60
2023/10/01 02:03:03;;;;;;;5.50;4.10;;;14.70;99.90;;;;;;5095883;28;20438;-60
2023/10/01 02:05:30;;;;;;;7.40;4.30;;;14.70;99.90;;;;;;5095583;28;20465;-60
2023/10/01 02:08:06;;;;;;;6.53;4.80;;;14.70;99.90;;;;;;5095071;28;20438;-60
2023/10/01 02:10:44;;;;;;;6.77;4.23;;;14.70;99.90;;;;;;5095047;28;21042;-60
2023/10/01 02:13:12;;;;;;;5.43;3.73;;;14.70;99.90;;;;;;5095288;28;20418;-60
2023/10/01 02:15:39;;;;;;;5.80;4.77;;;14.70;99.90;;;;;;5095180;28;20457;-59
2023/10/01 02:18:09;;;;;;;5.90;4.03;;;14.70;99.90;;;;;;5095019;28;20485;-59
2023/10/01 02:20:36;;;;;;;7.60;4.27;;;14.70;99.90;;;;;;5094835;28;20477;-60
2023/10/01 02:23:04;;;;;;;5.83;3.90;;;14.70;99.90;;;;;;5094606;28;20444;-60
2023/10/01 02:25:38;;;;;;;8.00;4.20;;;14.70;99.90;;;;;;5094923;28;20468;-60
2023/10/01 02:28:12;;;;;;;5.40;3.70;;;14.70;99.90;;;;;;5094865;28;20426;-59
2023/10/01 02:30:41;;;;;;;5.10;3.90;;;14.60;99.90;;;;;;5095425;28;20457;-60
2023/10/01 02:33:17;;;;;;;7.90;3.90;;;14.60;99.90;;;;;;5094466;28;20454;-60
2023/10/01 02:35:46;;;;;;;4.77;3.90;;;14.70;99.90;;;;;;5094906;28;20437;-59
2023/10/01 02:40:59;;;;;;;6.90;4.43;;;14.70;99.90;;;;;;5094880;28;20765;-60
2023/10/01 02:43:26;;;;;;;6.27;4.30;;;14.70;99.90;;;;;;5095116;28;20434;-60
2023/10/01 02:45:53;;;;;;;5.10;3.10;;;14.70;99.90;;;;;;5094431;28;20529;-60
2023/10/01 02:48:19;;;;;;;4.80;3.53;;;14.60;99.90;;;;;;5094440;28;20800;-60
2023/10/01 02:50:51;;;;;;;5.87;4.70;;;14.50;99.90;;;;;;5093408;28;20457;-60
2023/10/01 02:53:20;;;;;;;5.97;3.70;;;14.50;99.90;;;;;;5094526;28;20196;-60
2023/10/01 02:55:47;;;;;;;6.50;4.23;;;14.50;99.90;;;;;;5094471;28;20446;-60
2023/10/01 02:58:20;;;;;;;6.93;4.10;;;14.40;99.90;;;;;;5094043;28;21006;-59
2023/10/01 03:00:50;;;;;;;6.07;4.13;;;14.40;99.90;;;;;;5094366;28;20458;-59
2023/10/01 03:03:17;;;;;;;7.97;3.63;;;14.40;99.90;;;;;;5095201;28;20431;-59
2023/10/01 03:05:46;;;;;;;7.10;4.47;;;14.40;99.90;;;;;;5094085;28;20438;-59
2023/10/01 03:08:40;;;;;;;4.70;4.10;;;14.40;99.90;;;;;;5094220;28;20818;-59
2023/10/01 03:11:11;;;;;;;4.37;3.97;;;14.40;99.90;;;;;;5094085;28;20794;-60
2023/10/01 03:13:37;;;;;;;6.33;3.50;;;14.40;99.90;;;;;;5094158;28;20454;-61
2023/10/01 03:18:54;;;;;;;4.10;3.43;;;14.30;99.90;;;;;;5093343;28;20223;-59
2023/10/01 03:22:12;;;;;;;7.00;4.00;;;14.30;99.90;;;;;;5093975;28;20431;-60
2023/10/01 03:24:09;;;;;;;6.23;3.80;;;14.30;99.90;;;;;;5093445;28;20438;-60
2023/10/01 03:26:44;;;;;;;6.10;4.60;;;14.30;99.90;;;;;;5094218;28;20454;-59
2023/10/01 03:29:34;;;;;;;6.17;4.07;;;14.20;99.90;;;;;;5094005;28;20542;-60
2023/10/01 03:32:26;;;;;;;4.83;3.70;;;14.20;99.90;;;;;;5093927;28;20423;-59
2023/10/01 03:34:52;;;;;;;9.00;4.10;;;14.20;99.90;;;;;;5093468;28;20435;-59
2023/10/01 03:37:19;;;;;;;5.40;3.80;;;14.20;99.90;;;;;;5093749;28;20427;-60
2023/10/01 03:39:50;;;;;;;7.40;4.20;;;14.10;99.90;;;;;;5093599;28;20462;-60
2023/10/01 03:42:18;;;;;;;5.30;3.50;;;14.10;99.90;;;;;;5093755;28;20536;-61
2023/10/01 03:45:19;;;;;;;6.23;4.50;;;14.10;99.90;;;;;;5093851;28;20481;-61
2023/10/01 03:47:50;;;;;;;5.33;4.13;;;14.10;99.90;;;;;;5093725;28;20889;-61
2023/10/01 03:50:20;;;;;;;6.33;4.47;;;14.10;99.90;;;;;;5093286;28;20554;-61
2023/10/01 03:52:52;;;;;;;4.57;3.87;;;14.20;99.90;;;;;;5093523;28;20515;-60
2023/10/01 03:55:27;;;;;;;5.50;3.90;;;14.20;99.90;;;;;;5093863;28;20422;-59
2023/10/01 03:58:05;;;;;;;6.80;3.93;;;14.20;99.90;;;;;;5093735;28;20863;-60
2023/10/01 04:03:14;;;;;;;9.47;4.57;;;14.30;99.90;;;;;;5032188;28;20469;-57
2023/10/01 04:05:44;;;;;;;6.03;4.80;;;14.30;99.90;;;;;;5033711;28;20439;-56
2023/10/01 04:08:12;;;;;;;6.07;4.30;;;14.30;99.90;;;;;;5036503;28;20476;-56
2023/10/01 04:12:20;;;;;;;6.10;4.23;;;14.30;99.90;;;;;;5095917;28;20599;-55
2023/10/01 04:14:49;;;;;;;6.47;4.00;;;14.30;99.90;;;;;;5096188;28;20434;-55
2023/10/01 04:17:18;;;;;;;7.63;3.93;;;14.30;99.90;;;;;;5096447;28;20445;-55
2023/10/01 04:19:48;;;;;;;6.27;3.97;;;14.40;99.90;;;;;;5096767;28;20857;-55
2023/10/01 04:22:17;;;;;;;4.83;3.67;;;14.30;99.90;;;;;;5091981;28;20495;-56
2023/10/01 04:24:43;;;;;;;8.43;4.07;;;14.30;99.90;;;;;;5090557;28;20443;-55
2023/10/01 04:27:23;;;;;;;5.67;4.37;;;14.40;99.90;;;;;;5090306;28;20507;-56
2023/10/01 04:29:57;;;;;;;4.50;3.67;;;14.40;99.90;;;;;;5090470;28;20521;-55
2023/10/01 04:32:27;;;;;;;6.60;4.00;;;14.40;99.90;;;;;;5090046;28;20453;-56
2023/10/01 04:34:54;;;;;;;9.13;4.37;;;14.40;99.90;;;;;;5090330;28;20504;-56
2023/10/01 04:37:36;;;;;;;9.70;4.17;;;14.40;99.90;;;;;;5090299;28;20446;-55
2023/10/01 04:40:06;;;;;;;12.00;4.07;;;14.40;99.90;;;;;;5089956;28;20422;-55
2023/10/01 04:42:37;;;;;;;5.60;4.00;;;14.40;99.90;;;;;;5090087;28;20485;-56
2023/10/01 04:45:22;;;;;;;6.67;4.40;;;14.50;99.90;;;;;;5090204;28;20432;-55
2023/10/01 04:47:55;;;;;;;7.10;3.97;;;14.50;99.90;;;;;;5090193;28;20492;-55
2023/10/01 04:50:24;;;;;;;5.10;3.90;;;14.40;99.90;;;;;;5089943;28;20473;-55
2023/10/01 04:52:50;;;;;;;6.97;4.20;;;14.40;99.90;;;;;;5090435;28;20512;-56
2023/10/01 04:55:17;;;;;;;4.40;3.77;;;14.40;99.90;;;;;;5090007;28;20438;-56
2023/10/01 04:57:45;;;;;;;5.00;3.77;;;14.40;99.90;;;;;;5089911;28;20443;-57
2023/10/01 05:00:14;;;;;;;6.53;4.07;;;14.40;99.90;;;;;;5089864;28;20474;-55
2023/10/01 05:02:43;;;;;;;7.10;3.90;;;14.40;99.90;;;;;;5089544;28;20519;-54
2023/10/01 05:05:10;;;;;;;6.83;4.10;;;14.40;99.90;;;;;;5089498;28;20915;-55
2023/10/01 05:07:37;;;;;;;6.57;4.20;;;14.40;99.90;;;;;;5089843;28;20444;-55
2023/10/01 05:10:07;;;;;;;5.97;4.27;;;14.30;99.90;;;;;;5089892;28;20530;-55
2023/10/01 05:12:43;;;;;;;8.03;4.17;;;14.30;99.90;;;;;;5089485;28;20994;-55
2023/10/01 05:15:17;;;;;;;6.17;4.50;;;14.30;99.90;;;;;;5090099;28;20422;-55
2023/10/01 05:17:45;;;;;;;7.53;5.00;;;14.30;99.90;;;;;;5089733;28;20441;-55
2023/10/01 05:20:12;;;;;;;6.67;4.80;;;14.30;99.90;;;;;;5089765;28;20507;-55
2023/10/01 05:22:50;;;;;;;4.67;3.73;;;14.20;99.90;;;;;;5081277;28;20469;-55
2023/10/01 05:25:18;;;;;;;4.50;3.30;;;14.30;99.90;;;;;;5075904;28;20897;-55
2023/10/01 05:27:45;;;;;;;5.93;4.40;;;14.30;99.90;;;;;;5075889;28;20467;-56
2023/10/01 05:32:55;;;;;;;5.17;3.53;;;14.40;99.90;;;;;;5075543;28;20523;-55
2023/10/01 05:35:23;;;;;;;7.07;4.53;;;14.40;99.90;;;;;;5075769;28;20925;-56
2023/10/01 05:37:50;;;;;;;7.53;4.37;;;14.30;99.90;;;;;;5076233;28;20813;-56
2023/10/01 05:40:17;;;;;;;8.20;4.43;;;14.40;99.90;;;;;;5077549;28;20436;-55
2023/10/01 05:42:47;;;;;;;5.10;3.80;;;14.40;99.90;;;;;;5077844;28;21063;-55
2023/10/01 05:45:18;;;;;;;6.00;3.80;;;14.40;99.90;;;;;;5076451;28;20420;-55
2023/10/01 05:47:51;;;;;;;5.50;3.33;;;14.50;99.90;;;;;;5075796;28;20466;-55
2023/10/01 05:50:19;;;;;;;6.03;3.70;;;14.50;99.90;;;;;;5075710;28;20419;-55
2023/10/01 05:52:46;;;;;;;4.27;3.80;;;14.50;99.90;;;;;;5075201;28;20981;-54
2023/10/01 05:55:15;;;;;;;5.07;3.90;;;14.50;99.90;;;;;;5076477;28;20443;-55
2023/10/01 05:57:42;;;;;;;5.80;4.70;;;14.60;99.90;;;;;;5076223;28;20443;-55
2023/10/01 06:00:16;;;;;;;7.83;3.97;;;14.60;99.90;;;;;;5075613;28;20439;-56
2023/10/01 06:02:47;;;;;;;4.90;3.83;;;14.70;99.90;;;;;;5076435;28;20828;-56
2023/10/01 06:05:25;;;;;;;8.57;4.33;;;14.70;99.90;;;;;;5076037;28;20564;-55
2023/10/01 06:07:54;;;;;;;4.97;3.70;;;14.70;99.90;;;;;;5075782;28;20428;-55
2023/10/01 06:10:26;;;;;;;5.30;3.50;;;14.80;99.90;;;;;;5076238;28;20493;-55
2023/10/01 06:12:56;;;;;;;4.20;3.33;;;14.80;99.90;;;;;;5076821;28;20451;-55
2023/10/01 06:15:29;;;;;;;4.37;3.50;;;14.90;99.90;;;;;;5076969;28;20454;-55
2023/10/01 06:17:56;;;;;;;5.53;4.27;;;14.90;99.90;;;;;;5076439;28;20435;-55
2023/10/01 06:20:26;;;;;;;4.50;3.30;;;15.00;99.90;;;;;;5076077;28;20442;-56
2023/10/01 06:22:55;;;;;;;5.90;3.43;;;15.00;99.90;;;;;;5075880;28;20459;-55
2023/10/01 06:25:37;;;;;;;6.83;3.47;;;15.00;99.90;;;;;;5076473;28;20465;-56
2023/10/01 06:28:09;;;;;;;9.30;3.90;;;15.00;99.90;;;;;;5075788;28;20455;-55
2023/10/01 06:30:39;;;;;;;4.40;3.60;;;15.00;99.90;;;;;;5075236;28;20434;-57
2023/10/01 06:33:08;;;;;;;4.77;3.33;;;15.00;99.90;;;;;;5074681;28;20443;-55
2023/10/01 06:35:37;;;;;;;6.50;3.83;;;15.00;99.90;;;;;;5074331;28;20929;-57
2023/10/01 06:38:05;;;;;;;5.53;4.00;;;15.10;99.90;;;;;;5075321;28;20451;-56
2023/10/01 06:40:32;;;;;;;4.83;3.53;;;15.10;99.90;;;;;;5077353;28;20447;-55
2023/10/01 06:42:59;;;;;;;5.83;3.10;;;15.20;99.90;;;;;;5076869;28;20477;-55
2023/10/01 06:45:44;;;;;;;7.23;3.70;;;15.20;99.90;;;;;;5076407;28;20815;-56
2023/10/01 06:48:14;;;;;;;8.70;3.83;;;15.20;99.90;;;;;;5076678;28;20427;-54
2023/10/01 06:50:44;;;;;;;8.23;3.90;;;15.30;99.90;;;;;;5077229;28;20435;-56
2023/10/01 06:53:13;;;;;;;4.20;3.80;;;15.30;99.90;;;;;;5077584;28;20443;-55
2023/10/01 06:55:45;;;;;;;5.33;3.80;;;15.50;99.90;;;;;;5076525;28;20449;-55
2023/10/01 06:58:13;;;;;;;5.57;3.50;;;15.70;99.90;;;;;;5076093;28;20424;-55
2023/10/01 07:00:41;;;;;;;4.60;3.40;;;15.80;99.90;;;;;;5075455;28;20528;-56
2023/10/01 07:03:21;;;;;;;4.57;3.80;;;15.90;99.90;;;;;;5075753;28;20452;-57
2023/10/01 07:05:51;;;;;;;5.50;3.83;;;16.00;99.90;;;;;;5074308;28;20436;-55
2023/10/01 07:08:19;;;;;;;6.30;3.90;;;16.10;99.90;;;;;;5074366;28;20860;-55
2023/10/01 07:10:50;;;;;;;5.53;3.87;;;16.10;99.90;;;;;;5073647;28;20463;-55
2023/10/01 07:13:17;;;;;;;4.70;3.43;;;16.20;99.90;;;;;;5073707;28;20943;-57
2023/10/01 07:15:46;;;;;;;3.90;3.40;;;16.40;99.90;;;;;;5074176;28;20459;-55
2023/10/01 07:18:19;;;;;;;5.50;3.30;;;16.60;99.90;;;;;;5073936;28;20868;-55
2023/10/01 07:20:49;;;;;;;4.20;3.13;;;16.60;99.90;;;;;;5073826;28;20434;-56
2023/10/01 07:23:18;;;;;;;4.70;3.40;;;16.70;99.90;;;;;;5073645;28;20999;-56
2023/10/01 07:25:49;;;;;;;6.70;5.00;;;16.70;99.90;;;;;;5073644;28;21008;-56
2023/10/01 07:28:18;;;;;;;5.27;3.70;;;16.80;99.90;;;;;;5073676;28;20917;-55
2023/10/01 07:30:51;;;;;;;5.50;3.30;;;16.90;99.90;;;;;;5073551;28;20442;-56
2023/10/01 07:33:18;;;;;;;4.70;3.43;;;17.00;99.60;;;;;;5073796;28;20429;-55
2023/10/01 07:35:58;;;;;;;6.63;4.20;;;17.10;99.00;;;;;;5073189;28;20958;-55
2023/10/01 07:38:25;;;;;;;5.77;3.33;;;17.20;98.80;;;;;;5073403;28;20419;-55
2023/10/01 07:40:57;;;;;;;4.90;3.43;;;17.30;98.50;;;;;;5073586;28;20446;-56
2023/10/01 07:43:25;;;;;;;6.10;3.50;;;17.40;98.10;;;;;;5073593;28;20486;-57
2023/10/01 07:45:59;;;;;;;4.83;3.30;;;17.30;97.60;;;;;;5073260;28;20435;-55
2023/10/01 07:48:27;;;;;;;4.13;3.27;;;17.40;97.70;;;;;;5073561;28;20451;-56
2023/10/01 07:50:55;;;;;;;7.77;4.10;;;17.40;97.40;;;;;;5073465;28;20443;-56
2023/10/01 07:53:23;;;;;;;5.30;3.60;;;17.40;97.30;;;;;;5073166;28;20435;-57
2023/10/01 07:55:50;;;;;;;5.23;3.57;;;17.50;97.20;;;;;;5073927;28;20442;-56
2023/10/01 07:58:24;;;;;;;5.20;3.07;;;17.50;97.00;;;;;;5073386;28;20439;-56
2023/10/01 08:00:58;;;;;;;5.87;4.17;;;17.50;96.80;;;;;;5072817;28;20521;-57
2023/10/01 08:03:28;;;;;;;5.57;3.17;;;17.50;96.70;;;;;;5073227;28;20426;-55
2023/10/01 08:06:10;;;;;;;7.60;4.27;;;17.60;96.70;;;;;;5073164;28;20446;-55
2023/10/01 08:08:37;;;;;;;6.40;3.70;;;17.70;96.50;;;;;;5073990;28;20844;-56
2023/10/01 08:11:07;;;;;;;4.50;3.20;;;17.80;96.00;;;;;;5074406;28;20466;-57
2023/10/01 08:13:35;;;;;;;5.20;3.27;;;18.00;95.80;;;;;;5074229;28;20425;-55
2023/10/01 08:16:02;;;;;;;4.13;3.17;;;18.20;95.40;;;;;;5072953;28;20447;-56
2023/10/01 08:18:34;;;;;;;6.83;3.30;;;18.40;94.50;;;;;;5072603;28;21008;-56
2023/10/01 08:21:04;;;;;;;5.83;3.33;;;18.50;93.70;;;;;;5072737;28;20462;-57
2023/10/01 08:23:31;;;;;;;4.60;3.37;;;18.60;93.00;;;;;;5072769;28;20478;-56
2023/10/01 08:25:58;;;;;;;5.63;3.47;;;18.70;92.40;;;;;;5073151;28;20792;-57
2023/10/01 08:28:29;;;;;;;6.03;3.93;;;18.70;91.70;;;;;;5073254;28;20873;-56
2023/10/01 08:31:20;;;;;;;5.67;3.60;;;18.70;91.30;;;;;;5072885;28;20522;-56
2023/10/01 08:33:51;;;;;;;7.60;3.40;;;18.50;91.20;;;;;;5072856;28;20462;-56
2023/10/01 08:36:24;;;;;;;5.90;3.00;;;18.50;91.10;;;;;;5072734;28;20934;-56
2023/10/01 08:39:20;;;;;;;7.33;3.47;;;18.40;91.00;;;;;;5072936;28;20514;-56
2023/10/01 08:41:50;;;;;;;4.30;3.63;;;18.40;91.20;;;;;;5072386;28;20478;-56
2023/10/01 08:44:30;;;;;;;4.60;3.20;;;18.40;90.80;;;;;;5073044;28;20488;-56
2023/10/01 08:47:00;;;;;;;4.40;3.43;;;18.30;90.60;;;;;;5072483;28;20918;-56
2023/10/01 08:49:31;;;;;;;5.80;3.30;;;18.40;90.40;;;;;;5072971;28;20437;-56
2023/10/01 08:54:43;;;;;;;4.50;2.80;;;18.60;90.00;;;;;;5073088;28;20443;-57
2023/10/01 08:57:17;;;;;;;4.70;3.20;;;18.90;88.90;;;;;;5073551;28;20435;-60
2023/10/01 08:59:44;;;;;;;5.60;3.90;;;19.10;88.10;;;;;;5076719;28;20419;-56
2023/10/01 09:02:16;;;;;;;4.77;3.50;;;19.30;86.50;;;;;;5076534;28;20508;-57
2023/10/01 09:04:47;;;;;;;3.87;3.20;;;19.50;85.20;;;;;;5077572;28;20416;-57
2023/10/01 09:07:18;;;;;;;5.50;3.20;;;19.60;84.50;;;;;;5076340;28;20426;-58
2023/10/01 09:10:06;;;;;;;5.77;3.60;;;19.70;83.00;;;;;;5076281;28;20411;-57
2023/10/01 09:12:35;;;;;;;5.60;3.03;;;19.60;82.30;;;;;;5076307;28;20514;-58
2023/10/01 09:15:04;;;;;;;5.70;3.27;;;19.60;82.20;;;;;;5076124;28;20516;-58
2023/10/01 09:17:56;;;;;;;5.07;3.10;;;19.60;81.50;;;;;;5076460;28;20497;-58
2023/10/01 09:20:38;;;;;;;4.60;3.00;;;19.70;80.70;;;;;;5076392;28;20424;-57
2023/10/01 09:23:05;;;;;;;6.27;3.47;;;19.60;80.00;;;;;;5076759;28;20519;-58
2023/10/01 09:25:34;;;;;;;6.87;3.30;;;19.60;79.90;;;;;;5077050;28;20446;-57
2023/10/01 09:28:04;;;;;;;13.03;4.13;;;19.60;79.80;;;;;;5077568;28;20449;-57
2023/10/01 09:30:34;;;;;;;5.60;3.60;;;19.70;79.60;;;;;;5078437;28;20771;-57
2023/10/01 09:33:14;;;;;;;6.67;3.27;;;19.80;79.20;;;;;;5077427;28;20521;-57
2023/10/01 09:35:49;;;;;;;5.10;2.93;;;20.00;78.40;;;;;;5078595;28;20430;-56
2023/10/01 09:38:18;;;;;;;6.83;3.43;;;20.10;77.20;;;;;;5077949;28;20424;-57
2023/10/01 09:40:47;;;;;;;5.47;3.00;;;20.20;76.40;;;;;;5080352;28;20450;-55
2023/10/01 09:43:24;;;;;;;4.63;3.30;;;20.20;75.90;;;;;;5077544;28;20847;-57
2023/10/01 09:45:53;;;;;;;5.90;3.13;;;20.30;75.60;;;;;;5075848;28;20453;-55
2023/10/01 09:48:33;;;;;;;8.37;3.73;;;20.30;75.00;;;;;;5075788;28;20555;-55
2023/10/01 09:51:08;;;;;;;6.10;3.60;;;20.20;75.00;;;;;;5075571;28;20526;-55
2023/10/01 09:53:44;;;;;;;8.70;3.30;;;20.10;75.00;;;;;;5075682;28;20891;-55
2023/10/01 09:56:13;;;;;;;6.33;3.30;;;20.10;75.20;;;;;;5075898;28;20441;-56
2023/10/01 09:58:46;;;;;;;8.13;3.60;;;20.10;75.20;;;;;;5075867;28;20496;-55
2023/10/01 10:01:17;;;;;;;6.53;3.77;;;20.20;75.30;;;;;;5075666;28;21052;-57
2023/10/01 10:03:47;;;;;;;9.70;3.90;;;20.30;75.00;;;;;;5075892;28;20822;-56
2023/10/01 10:06:24;;;;;;;4.40;2.90;;;20.50;74.30;;;;;;5075555;28;20444;-54
2023/10/01 10:09:02;;;;;;;6.27;3.37;;;20.60;73.80;;;;;;5076069;28;20491;-55
2023/10/01 10:11:30;;;;;;;5.10;3.23;;;20.70;73.50;;;;;;5075628;28;20497;-56
2023/10/01 10:14:00;;;;;;;6.43;3.67;;;20.60;73.60;;;;;;5076145;28;20480;-56
2023/10/01 10:16:31;;;;;;;6.87;3.90;;;20.50;73.80;;;;;;5075113;28;20963;-55
2023/10/01 10:19:05;;;;;;;9.20;3.50;;;20.50;74.10;;;;;;5075073;28;20434;-55
2023/10/01 10:22:10;;;;;;;6.60;3.80;;;20.40;74.20;;;;;;5074858;28;20466;-55
2023/10/01 10:24:45;;;;;;;9.63;5.00;;;20.40;74.30;;;;;;5074984;28;20425;-56
2023/10/01 10:27:16;;;;;;;5.60;3.90;;;20.30;74.70;;;;;;5074997;28;20430;-56
2023/10/01 10:30:15;;;;;;;8.47;4.50;;;20.20;74.80;;;;;;5075031;28;20453;-57
2023/10/01 10:33:29;;;;;;;7.63;4.27;;;20.00;75.00;;;;;;5075128;28;20484;-55
2023/10/01 10:36:55;;;;;;;6.00;3.83;;;20.00;75.60;;;;;;5074821;28;20488;-55
2023/10/01 10:40:14;;;;;;;4.40;3.63;;;20.20;75.90;;;;;;5074969;28;20438;-56
2023/10/01 10:42:42;;;;;;;6.47;3.60;;;20.40;75.70;;;;;;5075055;28;20456;-55
2023/10/01 10:45:23;;;;;;;8.10;4.00;;;20.60;75.30;;;;;;5075047;28;20550;-55
2023/10/01 10:47:58;;;;;;;8.63;4.50;;;20.60;75.20;;;;;;5074931;28;20526;-55
2023/10/01 10:50:44;;;;;;;7.97;3.50;;;20.60;75.50;;;;;;5074433;28;20431;-56
2023/10/01 10:53:19;;;;;;;5.30;3.80;;;20.60;75.50;;;;;;5074800;28;20497;-55
2023/10/01 10:56:00;;;;;;;5.23;3.57;;;20.50;75.70;;;;;;5074309;28;20437;-56
2023/10/01 10:58:31;;;;;;;12.07;3.83;;;20.50;76.10;;;;;;5074083;28;20454;-56
2023/10/01 11:01:15;;;;;;;7.73;4.00;;;20.50;76.20;;;;;;5074034;28;20472;-55
2023/10/01 11:03:43;;;;;;;9.10;4.60;;;20.50;76.40;;;;;;5074321;28;20430;-56
2023/10/01 11:06:23;;;;;;;6.00;3.63;;;20.50;76.70;;;;;;5073906;28;20486;-56
2023/10/01 11:08:50;;;;;;;6.53;3.87;;;20.60;76.90;;;;;;5074148;28;20421;-56
2023/10/01 11:11:27;;;;;;;6.23;3.77;;;20.70;76.60;;;;;;5074164;28;20478;-57
2023/10/01 11:14:02;;;;;;;7.50;3.77;;;21.00;76.00;;;;;;5074144;28;20463;-56
2023/10/01 11:16:37;;;;;;;8.33;4.40;;;21.20;75.40;;;;;;5074270;28;20430;-55
2023/10/01 11:19:13;;;;;;;7.03;4.27;;;21.30;75.20;;;;;;5073611;28;20763;-56
2023/10/01 11:21:54;;;;;;;6.60;4.30;;;21.20;75.00;;;;;;5073085;28;20974;-56
2023/10/01 11:24:26;;;;;;;7.60;4.10;;;21.30;75.20;;;;;;5074235;28;20427;-57
2023/10/01 11:27:14;;;;;;;7.00;4.20;;;21.30;75.10;;;;;;5074549;28;20422;-57
2023/10/01 11:29:43;;;;;;;8.20;4.00;;;21.30;75.10;;;;;;5073843;28;20515;-57
2023/10/01 11:32:16;;;;;;;6.60;4.33;;;21.40;75.00;;;;;;5073653;28;20473;-58
2023/10/01 11:34:45;;;;;;;10.73;4.33;;;21.50;74.50;;;;;;5073949;28;20423;-56
2023/10/01 11:37:16;;;;;;;6.03;4.00;;;21.70;74.30;;;;;;5074486;28;20443;-56
2023/10/01 11:39:49;;;;;;;6.93;4.00;;;21.80;73.50;;;;;;5073636;28;20442;-56
2023/10/01 11:42:26;;;;;;;5.97;3.60;;;22.00;72.80;;;;;;5073535;28;20536;-56
2023/10/01 11:44:54;;;;;;;8.00;4.73;;;22.00;72.40;;;;;;5073393;28;20423;-56
2023/10/01 11:47:33;;;;;;;7.00;4.27;;;22.10;72.00;;;;;;5073411;28;20443;-56
2023/10/01 11:50:07;;;;;;;7.50;3.90;;;22.10;71.80;;;;;;5073419;28;20927;-56
2023/10/01 11:52:35;;;;;;;7.07;3.90;;;22.00;71.50;;;;;;5073648;28;20509;-57
2023/10/01 11:55:18;;;;;;;8.33;4.60;;;22.00;71.70;;;;;;5073382;28;20446;-57
2023/10/01 11:57:51;;;;;;;6.23;4.40;;;22.10;71.50;;;;;;5073652;28;20427;-55
2023/10/01 12:00:52;;;;;;;8.23;5.50;;;22.30;71.40;;;;;;5074752;28;20433;-56
2023/10/01 12:03:10;;;;;;;7.93;5.03;;;22.40;71.00;;;;;;5075756;28;20464;-56
2023/10/01 12:05:41;;;;;;;10.80;5.00;;;22.50;70.60;;;;;;5078340;28;20431;-57
2023/10/01 12:08:14;;;;;;;13.10;5.40;;;22.60;70.30;;;;;;5078124;28;20451;-57
2023/10/01 12:10:41;;;;;;;8.97;5.10;;;22.50;70.20;;;;;;5077149;28;20508;-56
2023/10/01 12:13:10;;;;;;;12.20;5.50;;;22.40;70.30;;;;;;5076401;28;20475;-57
2023/10/01 12:15:43;;;;;;;9.17;5.70;;;22.40;70.50;;;;;;5073630;28;20439;-58
2023/10/01 12:18:14;;;;;;;8.30;5.50;;;22.50;70.40;;;;;;5072804;28;20445;-57
2023/10/01 12:20:47;;;;;;;10.50;5.77;;;22.40;70.00;;;;;;5072450;28;20436;-57
2023/10/01 12:23:15;;;;;;;8.70;5.07;;;22.30;70.50;;;;;;5072569;28;21008;-57
2023/10/01 12:25:47;;;;;;;10.47;6.03;;;22.30;70.00;;;;;;5072974;28;20908;-57
2023/10/01 12:28:19;;;;;;;13.13;6.60;;;22.30;69.70;;;;;;5072837;28;20522;-57
2023/10/01 12:30:57;;;;;;;9.33;5.67;;;22.20;69.50;;;;;;5072455;28;20940;-58
2023/10/01 12:33:24;;;;;;;11.27;6.40;;;22.20;69.60;;;;;;5075346;28;20531;-57
2023/10/01 12:35:52;;;;;;;10.00;6.17;;;22.20;69.60;;;;;;5076725;28;20510;-57
2023/10/01 12:38:23;;;;;;;10.80;6.17;;;22.10;69.50;;;;;;5076654;28;20450;-56
2023/10/01 12:40:54;;;;;;;8.30;5.10;;;22.10;69.70;;;;;;5077349;28;20828;-57
2023/10/01 12:43:36;;;;;;;13.03;6.27;;;22.20;69.80;;;;;;5076684;28;20438;-56
2023/10/01 12:46:08;;;;;;;8.37;5.53;;;22.30;70.30;;;;;;5076225;28;20452;-56
2023/10/01 12:48:35;;;;;;;7.60;5.33;;;22.40;69.40;;;;;;5076992;28;20840;-56
2023/10/01 12:51:03;;;;;;;12.07;5.67;;;22.50;69.30;;;;;;5076792;28;20528;-57
2023/10/01 12:53:34;;;;;;;8.83;5.33;;;22.60;69.10;;;;;;5076320;28;20478;-57
2023/10/01 12:56:03;;;;;;;11.87;5.30;;;22.70;68.80;;;;;;5075996;28;20916;-56
2023/10/01 12:58:39;;;;;;;12.10;5.40;;;22.70;68.60;;;;;;5076098;28;20450;-56
2023/10/01 13:01:23;;;;;;;10.10;5.27;;;22.70;68.70;;;;;;5077352;28;20596;-54
2023/10/01 13:03:50;;;;;;;9.30;5.57;;;22.60;68.70;;;;;;5077906;28;20799;-57
2023/10/01 13:06:16;;;;;;;11.70;5.77;;;22.60;68.90;;;;;;5077397;28;20990;-57
2023/10/01 13:08:42;;;;;;;9.80;5.10;;;22.70;68.80;;;;;;5076528;28;20446;-57
2023/10/01 13:11:43;;;;;;;10.40;5.77;;;22.70;68.40;;;;;;5076520;28;20478;-57
2023/10/01 13:14:16;;;;;;;7.33;5.07;;;22.70;68.30;;;;;;5077604;28;20221;-57
2023/10/01 13:16:50;;;;;;;8.37;4.90;;;22.70;68.10;;;;;;5077349;28;20500;-57
2023/10/01 13:19:22;;;;;;;9.03;5.53;;;22.80;68.10;;;;;;5077426;28;20427;-55
2023/10/01 13:21:49;;;;;;;11.23;6.20;;;22.90;67.80;;;;;;5078070;28;20478;-57
2023/10/01 13:24:17;;;;;;;8.80;5.20;;;22.80;67.80;;;;;;5076837;28;20446;-57
2023/10/01 13:26:43;;;;;;;9.77;4.73;;;22.80;68.00;;;;;;5076697;28;20443;-57